Pagrindinis puslapis
METAR-TAF:

METAR-TAF

Oro uostai :

Imphalas, Indija

platuma: 24-45-36N, ilguma: 93-53-48E, Aukštis: 774 m

Dabartinis oras

Ataskaita buvo paskelbta 28 minutes, ne 05:30 UTC
Vėjas 1 kt iš Šiaurės Vakarų
Temperatūra 23°C
Drėgmė 69%
Slėgis 1014 hPa
Matomumas: 5000 m
Mažai debesys ne aukštis 800 ft
Išsisklaidę debesys ne aukštis 1800 ft
Su prošvaistėmis ne aukštis 10000 ft
migla

METAR: VEIM 300530Z 32001KT 5000 HZ FEW008 SCT018 BKN100 23/17 Q1014 NOSIG

Laikas: 11:28 (05:58 UTC)

Prognozė

Ataskaita buvo paskelbta 3 valandos ir 58 minutes, ne 02:00 UTC
Prognozė galioja nuo 30 metu 03 UTC su 30 metu 12 UTC
Vėjas kt iš Šiaurės
Matomumas: 4000 m
Mažai debesys ne aukštis 1000 ft
Išsisklaidę debesys ne aukštis 1800 ft
Su prošvaistėmis ne aukštis 9000 ft
lietus, rūkana
Tapsmas
nuo 30 metu 06 UTC su 30 metu 08 UTC
Matomumas: 4000 m
Išsisklaidę debesys ne aukštis 1800 ft
Su prošvaistėmis ne aukštis 10000 ft
rūkana, migla

TAF: VEIM 300200Z 3003/3012 00000KT 4000 -RA BR FEW010 SCT018 BKN090 BECMG 3006/3008 4000 BR HZ SCT018 BKN100

Orai ataskaitas ir orų prognozės (METAR, TAF).

turimą stotys yra geltonos ir raudonos taškus žemėlapyje.

Perkelti pele per norėdami pamatyti stoties vardą.

Tada spustelėkite, norėdami matyti oro stebėjimo ir prognozės.

Norėdami pakeisti žemėlapį: spustelėkite ant žalios mygtukų su juodo kryžiaus žemyn,; žalią mygtuką su brūkšneliu, jei norite nutolinti; arba žalių rodyklių gretimoms žemėlapius.


METAR-TAF: